METAR Data
IDs: Format: Raw Decoded Include TAF

Data at: 1525 UTC 21 Sep 2018

KJMS 211456Z AUTO 30011KT 10SM CLR 08/06 A3023 RMK AO2 SLP246 T00830056 51033
KJMS 211356Z AUTO 31010KT 10SM BKN055 OVC075 07/05 A3020 RMK AO2 SLP239 T00670050
KJMS 211305Z AUTO 32013KT 10SM FEW016 SCT026 OVC049 06/04 A3018 RMK AO2 T00560044
KJMS 211256Z AUTO 32014KT 10SM SCT016 BKN026 OVC047 06/04 A3018 RMK AO2 SLP229 T00560044
KJMS 211245Z AUTO 32011KT 10SM SCT011 BKN017 OVC026 06/04 A3017 RMK AO2 T00560044
KJMS 211156Z AUTO 32011KT 10SM OVC011 06/05 A3012 RMK AO2 SLP210 60002 70097 T00560050 10056 20050 51024
KJMS 211056Z AUTO 33010G22KT 6SM BR BKN008 BKN014 OVC019 06/05 A3009 RMK AO2 RAE33 CIG 006V011 SLP198 P0000 T00560050
KJMS 211013Z AUTO 32014KT 9SM -RA OVC010 05/04 A3006 RMK AO2 CIG 006V015 P0000 T00500044
KJMS 210956Z AUTO 34016G23KT 10SM -RA OVC008 06/05 A3005 RMK AO2 CIG 005V014 SLP186 P0000 T00560050
KJMS 210931Z AUTO 33013G22KT 4SM -RA BR BKN008 OVC013 06/05 A3003 RMK AO2 CIG 006V010 P0000 T00560050
KJMS 210856Z AUTO 33014G22KT 10SM -RA BKN010 OVC014 06/05 A3000 RMK AO2 CIG 007V012 SLP169 P0000 60002 T00560050 53025
KJMS 210756Z AUTO 34015G21KT 10SM -RA OVC010 06/05 A2996 RMK AO2 CIG 008V013 SLP155 P0001 T00560050
KJMS 210656Z AUTO 35011G18KT 7SM -RA BKN010 OVC026 05/04 A2992 RMK AO2 SLP142 P0001 T00500044
KJMS 210654Z AUTO 35011G18KT 7SM -RA BKN010 OVC026 05/04 A2992 RMK AO2 P0001
KJMS 210556Z AUTO 35015G22KT 6SM -RA BR BKN008 BKN013 OVC019 05/04 A2990 RMK AO2 PK WND 34026/0520 SLP136 P0000 60003 T00500044 10106 20050 401060050 53024
KJMS 210527Z AUTO 35012G26KT 5SM -RA BR SCT007 BKN011 OVC018 05/04 A2989 RMK AO2 PK WND 34026/0520 P0000 T00500044
KJMS 210456Z AUTO 35014G24KT 3SM -RA BR BKN007 OVC012 06/05 A2988 RMK AO2 CIG 005V010 SLP126 P0001 T00560050
KJMS 210356Z AUTO 35014G21KT 3SM -RA BR BKN006 OVC012 07/06 A2985 RMK AO2 CIG 005V009 SLP116 P0001 T00670061
KJMS 210256Z AUTO 36012G20KT 3SM -RA BR OVC006 07/07 A2983 RMK AO2 CIG 005V010 SLP109 P0001 60001 T00720067 53018
KJMS 210156Z AUTO 01012G21KT 5SM -RA BR OVC008 07/07 A2980 RMK AO2 RAB40 SLP099 P0000 T00720067
KJMS 210056Z AUTO 35015G21KT 10SM OVC007 08/07 A2979 RMK AO2 SLP096 T00830072
KJMS 210013Z AUTO 34012KT 10SM OVC009 09/08 A2978 RMK AO2 CIG 006V011 T00940083
KJMS 202356Z AUTO 34012KT 10SM BKN010 OVC090 11/10 A2977 RMK AO2 RAE48 PRESRR SLP088 P0002 60073 T01060100 10106 20094 51003
KJMS 202349Z AUTO 01011G21KT 10SM BKN010 BKN024 OVC090 11/10 A2976 RMK AO2 RAE48 PRESRR P0002 T01060100
KJMS 202330Z AUTO 04016G22KT 9SM -RA SCT008 BKN024 OVC090 11/10 A2973 RMK AO2 P0002 T01060100
KJMS 202311Z AUTO 02014G23KT 4SM -RA BR SCT008 BKN014 OVC022 10/10 A2975 RMK AO2 P0001 T01000100
KJMS 202256Z AUTO 02012G18KT 5SM -RA BR BKN009 OVC014 10/10 A2977 RMK AO2 CIG 006V011 SLP087 P0009 T01000100
KJMS 202251Z AUTO 01012G18KT 5SM -RA BR BKN009 OVC014 10/09 A2977 RMK AO2 CIG 006V013 P0009
KJMS 202241Z AUTO 36012KT 4SM RA BR OVC010 10/10 A2977 RMK AO2 CIG 006V013 P0008 T01000100
KJMS 202156Z AUTO 01010KT 4SM RA BR OVC007 10/09 A2976 RMK AO2 SLP086 P0017 T01000094
KJMS 202139Z AUTO 03012G18KT 2SM RA BR OVC007 10/09 A2977 RMK AO2 P0012 T01000094
KJMS 202056Z AUTO 03010G18KT 5SM RA BR BKN008 OVC012 10/09 A2977 RMK AO2 SLP090 P0014 60045 T01000094 58031
KJMS 202007Z AUTO 03008KT 3SM RA BR BKN006 OVC010 10/09 A2981 RMK AO2 P0003 T01000094
KJMS 201956Z AUTO 02009KT 2 1/2SM RA BR OVC007 09/09 A2981 RMK AO2 SLP103 P0021 T00940089
KJMS 201942Z AUTO 03010G16KT 2 1/2SM RA BR OVC007 10/09 A2982 RMK AO2 P0017 T01000089
KJMS 201933Z AUTO 04008G16KT 1 3/4SM +RA BR BKN007 OVC013 10/09 A2983 RMK AO2 P0014 T01000089
KJMS 201907Z AUTO 03011KT 2SM +RA BR OVC008 10/09 A2984 RMK AO2 CIG 006V012 P0004 T01000089
KJMS 201856Z AUTO 03007G15KT 3SM RA BR BKN008 OVC012 10/09 A2984 RMK AO2 CIG 006V010 SLP114 P0010 T01000089
KJMS 201805Z AUTO 03008KT 7SM -RA BKN007 OVC039 10/09 A2986 RMK AO2 P0001 T01000089
KJMS 201756Z AUTO 03010KT 7SM -RA SCT007 BKN038 OVC090 09/09 A2987 RMK AO2 SLP123 P0009 60019 T00940089 10094 20083 58027
KJMS 201723Z AUTO 04009KT 3SM RA BR FEW006 BKN080 OVC095 09/09 A2989 RMK AO2 P0005 T00940089
KJMS 201656Z AUTO 04009KT 6SM RA BR SCT055 BKN080 OVC090 09/09 A2990 RMK AO2 SLP133 P0010 T00940089
KJMS 201639Z AUTO 04008KT 5SM -RA BR SCT055 BKN075 OVC090 09/08 A2991 RMK AO2 P0009 T00940083
KJMS 201627Z AUTO 05008KT 2SM RA BR FEW009 BKN050 OVC090 09/08 A2991 RMK AO2 P0007 T00940083
KJMS 201607Z AUTO 05006KT 10SM -RA FEW009 OVC050 09/08 A2992 RMK AO2 P0000 T00940083
KJMS 201556Z AUTO 04007KT 10SM -RA OVC050 09/08 A2993 RMK AO2 RAB12 SLP140 P0000 T00940078
KJMS 201456Z AUTO 05007KT 10SM SCT009 OVC055 09/07 A2995 RMK AO2 SLP149 T00890072 56020
KJMS 201429Z AUTO 05011KT 10SM BKN009 OVC055 09/07 A2996 RMK AO2 T00890072
KJMS 201356Z AUTO 04008KT 10SM SCT009 OVC055 09/07 A2997 RMK AO2 SLP156 T00890072
KJMS 201256Z AUTO 04008KT 10SM BKN055 08/07 A2998 RMK AO2 SLP159 T00830067
KJMS 201156Z AUTO 05007KT 10SM CLR 08/06 A3001 RMK AO2 SLP168 T00830061 10083 20067 55016
KJMS 201056Z AUTO 06008KT 10SM CLR 08/06 A3001 RMK AO2 SLP165 T00780056
KJMS 200956Z AUTO 05009KT 10SM CLR 08/05 A3004 RMK AO2 SLP177 T00780050
KJMS 200856Z AUTO 05007KT 10SM CLR 07/05 A3006 RMK AO2 SLP184 T00720050 56014
KJMS 200756Z AUTO 04006KT 10SM CLR 07/04 A3006 RMK AO2 SLP185 T00670039
KJMS 200656Z AUTO 04005KT 10SM CLR 07/04 A3009 RMK AO2 SLP193 T00720039
KJMS 200556Z AUTO 05006KT 10SM CLR 08/04 A3010 RMK AO2 SLP199 T00830039 10161 20083 401940067 55001
KJMS 200456Z AUTO 04007KT 10SM CLR 09/04 A3009 RMK AO2 SLP196 T00940039
KJMS 200356Z AUTO 05009KT 10SM CLR 10/05 A3009 RMK AO2 SLP196 T01000050